Time;durP1;ratioP1;P1;durP2;ratioP2;P2;SDS_P1;SDS_P2;PMS_P1;PMS_P2;Temp;Humidity;BMP_temperature;BMP_pressure;BME280_temperature;BME280_humidity;BME280_pressure;Samples;Min_cycle;Max_cycle;Signal;HPM_P1;HPM_P2
2022/07/17 00:01:27;;;;;;;15.27;2.53;;;;;;;-145.18;100.00;46660.41;5051410;28;20033;-68
2022/07/17 00:03:52;;;;;;;8.50;2.00;;;;;;;-145.18;100.00;46660.41;5052025;28;20418;-69
2022/07/17 00:06:18;;;;;;;11.10;2.70;;;;;;;-145.18;100.00;46676.03;5051381;28;20043;-69
2022/07/17 00:08:44;;;;;;;6.07;1.97;;;;;;;-145.18;100.00;46660.41;5052018;28;20033;-69
2022/07/17 00:11:09;;;;;;;7.67;1.87;;;;;;;-145.18;100.00;46660.41;5051710;28;20036;-69
2022/07/17 00:13:35;;;;;;;13.57;2.30;;;;;;;-145.18;100.00;46660.41;5052005;28;20371;-68
2022/07/17 00:16:00;;;;;;;12.40;2.77;;;;;;;-145.18;100.00;46660.41;5041044;28;20425;-69
2022/07/17 00:18:25;;;;;;;5.47;1.90;;;;;;;-145.18;100.00;46660.41;5048231;28;20513;-69
2022/07/17 00:20:51;;;;;;;7.67;1.77;;;;;;;-145.18;100.00;46660.41;5051684;28;20036;-69
2022/07/17 00:23:17;;;;;;;8.97;1.80;;;;;;;-145.18;100.00;46660.41;5051425;28;20033;-69
2022/07/17 00:25:42;;;;;;;9.57;2.30;;;;;;;-145.18;100.00;46660.41;5051734;28;20482;-69
2022/07/17 00:28:08;;;;;;;7.83;1.80;;;;;;;-145.18;100.00;46660.41;5055133;28;20036;-69
2022/07/17 00:30:33;;;;;;;6.23;1.57;;;;;;;-145.18;100.00;46660.41;5035276;28;20100;-68
2022/07/17 00:32:58;;;;;;;7.30;1.93;;;;;;;-145.18;100.00;46660.41;5051635;28;20025;-68
2022/07/17 00:35:24;;;;;;;4.67;1.63;;;;;;;-145.18;100.00;46660.41;5033313;28;20123;-68
2022/07/17 00:37:50;;;;;;;5.67;1.50;;;;;;;-145.18;100.00;46660.41;5055842;28;20527;-69
2022/07/17 00:40:23;;;;;;;5.30;1.90;;;;;;;-145.18;100.00;46660.41;5071615;28;20040;-69
2022/07/17 00:42:49;;;;;;;6.07;1.90;;;;;;;-145.18;100.00;46660.41;5061250;28;20056;-69
2022/07/17 00:45:15;;;;;;;4.10;1.50;;;;;;;-145.18;100.00;46660.41;5051303;28;20095;-69
2022/07/17 00:48:02;;;;;;;6.50;2.07;;;;;;;-145.18;100.00;46660.41;5050989;28;20120;-69
2022/07/17 00:50:36;;;;;;;6.87;2.27;;;;;;;-145.18;100.00;46660.41;5051122;28;20035;-69
2022/07/17 00:53:03;;;;;;;5.13;1.90;;;;;;;-145.18;100.00;46660.41;5050197;28;20021;-68
2022/07/17 00:55:29;;;;;;;6.30;2.10;;;;;;;-145.18;100.00;46660.41;5050834;28;20087;-69
2022/07/17 00:57:55;;;;;;;11.67;2.10;;;;;;;-145.18;100.00;46660.41;5050871;28;20366;-68
2022/07/17 01:00:22;;;;;;;3.93;1.67;;;;;;;-145.18;100.00;46660.41;5051041;28;20036;-68
2022/07/17 01:02:49;;;;;;;5.73;2.13;;;;;;;-145.18;100.00;46660.41;5062966;28;20052;-68
2022/07/17 01:05:16;;;;;;;8.20;1.93;;;;;;;-145.18;100.00;46660.41;5070781;28;20385;-68
2022/07/17 01:07:42;;;;;;;7.17;1.83;;;;;;;-145.18;100.00;46660.41;5070796;28;20051;-68
2022/07/17 01:10:09;;;;;;;3.60;1.60;;;;;;;-145.18;100.00;46660.41;5070869;28;20727;-68
2022/07/17 01:12:34;;;;;;;7.43;1.77;;;;;;;-145.18;100.00;46660.41;5070544;28;20111;-69
2022/07/17 01:15:01;;;;;;;5.90;2.17;;;;;;;-145.18;100.00;46660.41;5070670;28;20447;-69
2022/07/17 01:17:26;;;;;;;6.97;2.23;;;;;;;-145.18;100.00;46660.41;5070159;28;20036;-69
2022/07/17 01:19:53;;;;;;;6.23;1.90;;;;;;;-145.18;100.00;46660.41;5070738;28;20024;-69
2022/07/17 01:22:19;;;;;;;6.37;1.93;;;;;;;-145.18;100.00;46660.41;5070031;28;20024;-68
2022/07/17 01:24:44;;;;;;;7.73;1.90;;;;;;;-145.18;100.00;46660.41;5070600;28;20063;-69
2022/07/17 01:27:10;;;;;;;8.30;2.00;;;;;;;-145.18;100.00;46660.41;5069725;28;20035;-70
2022/07/17 01:29:36;;;;;;;4.37;1.93;;;;;;;-145.18;100.00;46660.41;5070508;28;20535;-69
2022/07/17 01:32:02;;;;;;;8.67;2.60;;;;;;;-145.18;100.00;46660.41;5039620;28;20033;-69
2022/07/17 01:34:27;;;;;;;4.77;2.03;;;;;;;-145.18;100.00;46660.41;5050174;28;20064;-69
2022/07/17 01:36:53;;;;;;;6.00;1.97;;;;;;;-145.18;100.00;46660.41;5049806;28;20072;-69
2022/07/17 01:39:52;;;;;;;4.90;1.80;;;;;;;-145.18;100.00;46660.41;5050218;28;20492;-69
2022/07/17 01:42:04;;;;;;;2.55;1.50;;;;;;;-145.18;100.00;46660.41;5049822;28;20029;-69
2022/07/17 01:44:29;;;;;;;4.00;1.67;;;;;;;-145.18;100.00;46660.41;5050039;28;20178;-69
2022/07/17 01:46:54;;;;;;;4.43;2.20;;;;;;;-145.18;100.00;46660.41;5050118;28;20036;-69
2022/07/17 01:49:20;;;;;;;4.97;2.23;;;;;;;-145.18;100.00;46660.41;5049465;28;20033;-69
2022/07/17 01:51:45;;;;;;;4.53;2.27;;;;;;;-145.18;100.00;46660.41;5049786;28;20029;-68
2022/07/17 01:54:11;;;;;;;7.43;2.07;;;;;;;-145.18;100.00;46660.41;5032183;28;20068;-69
2022/07/17 01:56:36;;;;;;;8.17;2.43;;;;;;;-145.18;100.00;46660.41;5052208;28;20025;-69
2022/07/17 01:59:01;;;;;;;6.53;2.10;;;;;;;-145.18;100.00;46660.41;5070219;28;20461;-68
2022/07/17 02:03:58;;;;;;;3.67;1.50;;;;;;;-145.18;100.00;46660.41;5042863;22;20052;-69
2022/07/17 02:06:23;;;;;;;4.43;1.53;;;;;;;-145.18;100.00;46660.41;5043803;28;20098;-69
2022/07/17 02:08:50;;;;;;;7.60;1.97;;;;;;;-145.18;100.00;46660.41;5049299;28;20542;-69
2022/07/17 02:11:16;;;;;;;10.00;2.10;;;;;;;-145.18;100.00;46660.41;5049809;28;20444;-69
2022/07/17 02:13:42;;;;;;;6.97;2.07;;;;;;;-145.18;100.00;46660.41;5049738;28;20473;-69
2022/07/17 02:16:07;;;;;;;8.27;2.03;;;;;;;-145.18;100.00;46660.41;5049495;28;20035;-69
2022/07/17 02:18:33;;;;;;;8.30;1.80;;;;;;;-145.18;100.00;46660.41;5049435;28;20033;-69
2022/07/17 02:20:58;;;;;;;5.70;1.60;;;;;;;-145.18;100.00;46660.41;5049812;28;20017;-69
2022/07/17 02:23:24;;;;;;;6.47;1.70;;;;;;;-145.18;100.00;46660.41;5049784;28;20045;-69
2022/07/17 02:25:49;;;;;;;6.73;1.87;;;;;;;-145.18;100.00;46660.41;5050270;28;20064;-69
2022/07/17 02:28:14;;;;;;;4.57;1.87;;;;;;;-145.18;100.00;46660.41;5046659;28;20468;-69
2022/07/17 02:30:40;;;;;;;4.90;2.17;;;;;;;-145.18;100.00;46660.41;5049921;28;20036;-69
2022/07/17 02:33:06;;;;;;;5.57;2.40;;;;;;;-145.18;100.00;46660.41;5049455;28;20037;-69
2022/07/17 02:35:32;;;;;;;7.83;2.13;;;;;;;-145.18;100.00;46660.41;5050015;28;20036;-69
2022/07/17 02:37:58;;;;;;;5.60;2.30;;;;;;;-145.18;100.00;46660.41;5049290;28;20033;-69
2022/07/17 02:40:23;;;;;;;4.33;2.27;;;;;;;-145.18;100.00;46660.41;5049951;28;20094;-69
2022/07/17 02:42:48;;;;;;;8.87;2.83;;;;;;;-145.18;100.00;46660.41;5049866;28;20069;-69
2022/07/17 02:45:14;;;;;;;6.07;2.40;;;;;;;-145.18;100.00;46660.41;5049784;28;20503;-69
2022/07/17 02:47:40;;;;;;;8.40;2.97;;;;;;;-145.18;100.00;46660.41;5049234;28;20542;-69
2022/07/17 02:50:08;;;;;;;8.60;2.47;;;;;;;-145.18;100.00;46660.41;5049666;28;20033;-69
2022/07/17 02:52:34;;;;;;;8.87;2.53;;;;;;;-145.18;100.00;46660.41;5049701;28;20033;-69
2022/07/17 02:55:00;;;;;;;5.73;2.23;;;;;;;-145.18;100.00;46660.41;5050012;28;20539;-69
2022/07/17 02:57:25;;;;;;;5.53;2.13;;;;;;;-145.18;100.00;46660.41;5049079;28;20040;-69
2022/07/17 02:59:50;;;;;;;7.63;1.90;;;;;;;-145.18;100.00;46660.41;5048896;28;20166;-69
2022/07/17 03:02:16;;;;;;;5.03;1.97;;;;;;;-145.18;100.00;46636.94;5048870;28;20413;-69
2022/07/17 03:04:41;;;;;;;5.63;2.10;;;;;;;-145.18;100.00;46660.41;5049788;28;20104;-68
2022/07/17 03:07:06;;;;;;;4.50;2.00;;;;;;;-145.18;100.00;46660.41;5049106;28;20159;-68
2022/07/17 03:09:32;;;;;;;6.53;2.53;;;;;;;-145.18;100.00;46676.03;5049489;28;20037;-68
2022/07/17 03:11:58;;;;;;;6.80;2.53;;;;;;;-145.18;100.00;46660.41;5049666;28;20166;-68
2022/07/17 03:14:23;;;;;;;7.90;2.50;;;;;;;-145.18;100.00;46660.41;5049613;28;20033;-69
2022/07/17 03:16:49;;;;;;;7.13;2.47;;;;;;;-145.18;100.00;46660.41;5052016;28;20032;-68
2022/07/17 03:19:14;;;;;;;6.37;2.90;;;;;;;-145.18;100.00;46660.41;5052530;28;20504;-68
2022/07/17 03:21:39;;;;;;;5.43;2.70;;;;;;;-145.18;100.00;46660.41;5053059;28;20029;-69
2022/07/17 03:24:05;;;;;;;10.03;3.00;;;;;;;-145.18;100.00;46660.41;5052850;28;20037;-68
2022/07/17 03:26:30;;;;;;;14.20;4.67;;;;;;;-145.18;100.00;46660.41;5051789;28;20040;-68
2022/07/17 03:28:55;;;;;;;8.27;3.37;;;;;;;-145.18;100.00;46656.50;5052685;28;20028;-69
2022/07/17 03:31:21;;;;;;;7.20;3.50;;;;;;;-145.18;100.00;46660.41;5053257;28;20550;-69
2022/07/17 03:33:46;;;;;;;7.00;2.50;;;;;;;-145.18;100.00;46660.41;5052295;28;20032;-69
2022/07/17 03:36:12;;;;;;;9.73;3.10;;;;;;;-145.18;100.00;46660.41;5052862;28;20044;-68
2022/07/17 03:38:37;;;;;;;4.67;2.87;;;;;;;-145.18;100.00;46660.41;5052631;28;20033;-69
2022/07/17 03:41:03;;;;;;;8.30;2.80;;;;;;;-145.18;100.00;46660.41;5053039;28;20289;-68
2022/07/17 03:43:28;;;;;;;8.87;2.50;;;;;;;-145.18;100.00;46660.41;5038669;28;20057;-68
2022/07/17 03:45:54;;;;;;;7.40;2.70;;;;;;;-145.18;100.00;46658.44;5052441;28;20486;-69
2022/07/17 03:48:19;;;;;;;8.40;2.70;;;;;;;-145.18;100.00;46656.50;5051304;28;20033;-69
2022/07/17 03:50:45;;;;;;;8.13;2.90;;;;;;;-145.18;100.00;46658.44;5052712;28;20168;-69
2022/07/17 03:53:10;;;;;;;10.03;2.97;;;;;;;-145.18;100.00;46656.50;5042391;28;20029;-68
2022/07/17 03:55:36;;;;;;;8.83;2.90;;;;;;;-145.18;100.00;46658.44;5048340;28;20116;-69
2022/07/17 03:58:01;;;;;;;7.73;3.50;;;;;;;-145.18;100.00;46658.44;5051705;28;20083;-69
2022/07/17 04:00:27;;;;;;;10.73;3.00;;;;;;;-145.18;100.00;46660.41;5052756;28;20027;-69
2022/07/17 04:02:52;;;;;;;9.13;3.00;;;;;;;-145.18;100.00;46660.41;5051602;28;20049;-69
2022/07/17 04:05:18;;;;;;;8.67;2.97;;;;;;;-145.18;100.00;46660.41;5052466;28;20037;-69
2022/07/17 04:07:44;;;;;;;6.33;3.07;;;;;;;-145.18;100.00;46658.44;5051479;28;20069;-68
2022/07/17 04:10:11;;;;;;;10.57;3.93;;;;;;;-145.18;100.00;46660.41;5052240;28;20036;-68
2022/07/17 04:12:37;;;;;;;9.03;3.37;;;;;;;-145.18;100.00;46660.41;5050517;28;20435;-69
2022/07/17 04:15:04;;;;;;;10.77;3.43;;;;;;;-145.18;100.00;46656.50;5050736;28;20021;-69
2022/07/17 04:17:30;;;;;;;6.90;2.63;;;;;;;-145.18;100.00;46660.41;5051426;28;20044;-69
2022/07/17 04:19:55;;;;;;;8.47;3.03;;;;;;;-145.18;100.00;46660.41;5037703;28;20276;-69
2022/07/17 04:22:21;;;;;;;6.60;3.43;;;;;;;-145.18;100.00;46654.53;5051539;28;20056;-69
2022/07/17 04:24:47;;;;;;;9.47;3.80;;;;;;;-145.18;100.00;46660.41;5039924;28;20043;-69
2022/07/17 04:27:13;;;;;;;10.13;3.93;;;;;;;-145.18;100.00;46660.41;5036458;28;20525;-69
2022/07/17 04:29:38;;;;;;;10.10;3.37;;;;;;;-145.18;100.00;46658.44;5034524;28;20062;-69
2022/07/17 04:32:04;;;;;;;7.23;3.80;;;;;;;-145.18;100.00;46660.41;5034802;28;20532;-69
2022/07/17 04:34:32;;;;;;;7.40;3.23;;;;;;;-145.18;100.00;46658.44;5034934;28;20044;-69
2022/07/17 04:36:57;;;;;;;9.30;3.23;;;;;;;-145.18;100.00;46660.41;5035066;28;20083;-69
2022/07/17 04:39:23;;;;;;;9.43;3.10;;;;;;;-145.18;100.00;46660.41;5047289;28;20025;-69
2022/07/17 04:41:49;;;;;;;12.07;3.50;;;;;;;-145.18;100.00;46658.44;5051723;28;20029;-69
2022/07/17 04:44:14;;;;;;;8.43;3.10;;;;;;;-145.18;100.00;46656.50;5050437;28;20025;-70
2022/07/17 04:46:40;;;;;;;9.43;3.07;;;;;;;-145.18;100.00;46660.41;5046042;28;20117;-70
2022/07/17 04:49:05;;;;;;;10.50;2.90;;;;;;;-145.18;100.00;46660.41;5047120;28;20040;-70
2022/07/17 04:51:30;;;;;;;10.23;3.57;;;;;;;-145.18;100.00;46658.44;5050896;28;20082;-70
2022/07/17 04:53:56;;;;;;;7.60;3.00;;;;;;;-145.18;100.00;46660.41;5050639;28;20060;-70
2022/07/17 04:56:21;;;;;;;6.97;2.93;;;;;;;-145.18;100.00;46660.41;5051357;28;20061;-70
2022/07/17 04:58:47;;;;;;;10.80;4.03;;;;;;;-145.18;100.00;46660.41;5050633;28;20029;-70
2022/07/17 05:01:12;;;;;;;9.40;2.93;;;;;;;-145.18;100.00;46660.41;5050662;28;20531;-70
2022/07/17 05:03:38;;;;;;;10.43;3.40;;;;;;;-145.18;100.00;46660.41;5048682;28;20060;-70
2022/07/17 05:06:04;;;;;;;9.00;3.33;;;;;;;-145.18;100.00;46621.31;5052928;28;20060;-70
2022/07/17 05:08:29;;;;;;;5.97;3.03;;;;;;;-145.18;100.00;46656.50;5050792;28;20017;-70
2022/07/17 05:10:55;;;;;;;8.60;2.90;;;;;;;-145.18;100.00;46621.31;5050937;28;20029;-70
2022/07/17 05:13:20;;;;;;;9.50;3.40;;;;;;;-145.18;100.00;46660.41;5050676;28;20099;-71
2022/07/17 05:15:45;;;;;;;10.27;3.07;;;;;;;-145.18;100.00;46619.38;5049804;28;20048;-71
2022/07/17 05:18:11;;;;;;;10.37;3.93;;;;;;;-145.18;100.00;46619.38;5049782;28;20155;-70
2022/07/17 05:20:36;;;;;;;14.03;3.73;;;;;;;-145.18;100.00;46619.38;5050093;28;20109;-70
2022/07/17 05:23:01;;;;;;;9.07;3.53;;;;;;;-145.18;100.00;46621.31;5045966;28;20477;-71
2022/07/17 05:25:27;;;;;;;14.37;2.83;;;;;;;-145.18;100.00;46623.28;5047917;28;20036;-70
2022/07/17 05:27:52;;;;;;;8.87;2.73;;;;;;;-145.18;100.00;46621.31;5049313;28;20032;-71
2022/07/17 05:30:18;;;;;;;8.80;3.40;;;;;;;-145.18;100.00;46625.22;5050306;28;20032;-71
2022/07/17 05:32:43;;;;;;;5.93;3.23;;;;;;;-145.18;100.00;46629.13;5049132;28;20086;-70
2022/07/17 05:35:08;;;;;;;7.47;3.10;;;;;;;-145.18;100.00;46629.13;5048296;28;20033;-71
2022/07/17 05:37:34;;;;;;;9.07;2.83;;;;;;;-145.18;100.00;46631.09;5041114;28;20456;-70
2022/07/17 05:39:59;;;;;;;8.17;2.77;;;;;;;-145.18;100.00;46629.13;5050519;28;20033;-70
2022/07/17 05:42:24;;;;;;;13.60;4.70;;;;;;;-145.18;100.00;46633.06;5050536;28;20029;-71
2022/07/17 05:44:50;;;;;;;6.97;2.97;;;;;;;-145.18;100.00;46629.13;5050317;28;20445;-70
2022/07/17 05:47:15;;;;;;;9.57;3.17;;;;;;;-145.18;100.00;46633.06;5036379;28;20104;-70
2022/07/17 05:49:41;;;;;;;13.80;3.67;;;;;;;-145.18;100.00;46629.13;5050024;28;20090;-70
2022/07/17 05:52:06;;;;;;;8.80;3.77;;;;;;;-145.18;100.00;46636.94;5049945;28;20025;-71
2022/07/17 05:54:32;;;;;;;10.03;3.20;;;;;;;-145.18;100.00;46633.06;5049640;28;20048;-71
2022/07/17 05:56:59;;;;;;;8.93;3.83;;;;;;;-145.18;100.00;46629.13;5054335;28;20037;-71
2022/07/17 05:59:24;;;;;;;5.83;3.30;;;;;;;-145.18;100.00;46629.13;5049469;28;20064;-71
2022/07/17 06:01:50;;;;;;;9.93;3.70;;;;;;;-145.18;100.00;46633.06;5048797;28;20033;-71
2022/07/17 06:04:15;;;;;;;11.47;3.67;;;;;;;-145.18;100.00;46631.09;5046806;28;20052;-71
2022/07/17 06:06:41;;;;;;;11.47;3.30;;;;;;;-145.18;100.00;46633.06;5040159;28;20029;-71
2022/07/17 06:09:06;;;;;;;11.90;3.10;;;;;;;-145.18;100.00;46635.00;5047459;28;20033;-71
2022/07/17 06:11:32;;;;;;;12.43;3.27;;;;;;;-145.18;100.00;46640.88;5047838;28;20068;-71
2022/07/17 06:13:57;;;;;;;8.63;2.83;;;;;;;-145.18;100.00;46640.88;5047531;28;20405;-71
2022/07/17 06:16:22;;;;;;;10.87;3.20;;;;;;;-145.18;100.00;46638.91;5049366;28;20036;-71
2022/07/17 06:18:48;;;;;;;11.57;2.97;;;;;;;-145.18;100.00;46640.88;5048928;28;20571;-71
2022/07/17 06:21:13;;;;;;;8.83;3.40;;;;;;;-145.18;100.00;46642.81;5049754;28;20132;-71
2022/07/17 06:23:38;;;;;;;10.70;3.20;;;;;;;-145.18;100.00;46642.81;5049801;28;20033;-71
2022/07/17 06:26:04;;;;;;;12.67;2.90;;;;;;;-145.18;100.00;46642.81;5049275;28;20048;-71
2022/07/17 06:28:29;;;;;;;6.70;2.70;;;;;;;-145.18;100.00;46646.72;5048126;28;20040;-71
2022/07/17 06:30:55;;;;;;;9.03;2.90;;;;;;;-145.18;100.00;46646.72;5049847;28;20029;-71
2022/07/17 06:33:20;;;;;;;7.97;2.60;;;;;;;-145.18;100.00;46644.78;5048589;28;20047;-70
2022/07/17 06:35:46;;;;;;;8.77;2.63;;;;;;;-145.18;100.00;46644.78;5049845;28;20500;-71
2022/07/17 06:38:11;;;;;;;6.53;2.63;;;;;;;-145.18;100.00;46650.63;5048692;28;20449;-71
2022/07/17 06:40:37;;;;;;;8.93;2.57;;;;;;;-145.18;100.00;46648.69;5049465;28;20078;-71
2022/07/17 06:43:04;;;;;;;11.73;2.57;;;;;;;-145.18;100.00;46648.69;5048648;28;20425;-71
2022/07/17 06:45:30;;;;;;;12.70;2.70;;;;;;;-145.18;100.00;46650.63;5049355;28;20037;-70
2022/07/17 06:47:55;;;;;;;9.07;1.90;;;;;;;-145.18;100.00;46652.59;5048837;28;20044;-71
2022/07/17 06:50:20;;;;;;;6.80;2.10;;;;;;;-145.18;100.00;46650.63;5049185;28;20083;-71
2022/07/17 06:52:46;;;;;;;9.07;2.23;;;;;;;-145.18;100.00;46644.78;5053291;28;20029;-71
2022/07/17 06:55:11;;;;;;;13.47;2.37;;;;;;;-145.18;100.00;46642.81;5053096;28;20033;-71
2022/07/17 06:57:36;;;;;;;4.23;1.70;;;;;;;-145.18;100.00;46642.81;5053158;28;20029;-71
2022/07/17 07:00:03;;;;;;;11.70;3.10;;;;;;;-145.18;100.00;46648.69;5042599;28;20026;-71
2022/07/17 07:02:28;;;;;;;3.83;1.63;;;;;;;-145.18;100.00;46648.69;5049524;28;20049;-71
2022/07/17 07:04:54;;;;;;;9.93;1.83;;;;;;;-145.18;100.00;46644.78;5052577;28;20047;-71
2022/07/17 07:07:19;;;;;;;6.93;1.80;;;;;;;-145.18;100.00;46636.94;5052946;28;20091;-70
2022/07/17 07:09:44;;;;;;;6.63;1.50;;;;;;;-145.18;100.00;46609.59;5052312;28;20049;-71
2022/07/17 07:12:10;;;;;;;10.30;1.60;;;;;;;-145.18;100.00;46558.81;5053188;28;20103;-71
2022/07/17 07:14:35;;;;;;;7.57;1.20;;;;;;;-145.18;100.00;46547.09;5051846;28;20025;-71
2022/07/17 07:17:01;;;;;;;9.10;1.37;;;;;;;-145.18;100.00;46529.53;5053381;28;20450;-71
2022/07/17 07:19:26;;;;;;;7.13;1.50;;;;;;;-145.18;100.00;46521.72;5052268;28;20060;-71
2022/07/17 07:21:51;;;;;;;6.43;1.10;;;;;;;-145.18;100.00;46519.75;5052373;28;20493;-71
2022/07/17 07:24:17;;;;;;;4.87;1.97;;;;;;;-145.18;100.00;46515.84;5045269;28;20061;-71
2022/07/17 07:26:42;;;;;;;6.00;1.50;;;;;;;-145.18;100.00;46533.44;5051202;28;20697;-71
2022/07/17 07:29:07;;;;;;;7.60;1.80;;;;;;;-145.18;100.00;46529.53;5052031;28;20071;-71
2022/07/17 07:31:33;;;;;;;8.23;1.60;;;;;;;-145.18;100.00;46531.47;5050926;28;20763;-71
2022/07/17 07:33:58;;;;;;;6.30;1.27;;;;;;;-145.18;100.00;46535.38;5052435;28;20060;-70
2022/07/17 07:36:24;;;;;;;4.47;1.23;;;;;;;-145.18;100.00;46547.09;5049539;28;20550;-71
2022/07/17 07:38:49;;;;;;;7.50;1.40;;;;;;;-145.18;100.00;46535.38;5049992;28;20083;-70
2022/07/17 07:41:14;;;;;;;7.63;1.40;;;;;;;-145.18;100.00;46535.38;5051389;28;20040;-71
2022/07/17 07:43:40;;;;;;;7.80;1.60;;;;;;;-145.18;100.00;46533.44;5050915;28;20158;-71
2022/07/17 07:46:05;;;;;;;5.57;1.83;;;;;;;-145.18;100.00;46537.34;5051202;28;20068;-71
2022/07/17 07:48:31;;;;;;;7.07;2.13;;;;;;;-145.18;100.00;46545.16;5051797;28;20453;-71
2022/07/17 07:50:56;;;;;;;4.77;1.10;;;;;;;-145.18;100.00;46547.09;5052388;28;20192;-71
2022/07/17 07:53:22;;;;;;;8.13;1.53;;;;;;;-145.18;100.00;46541.25;5051994;28;20044;-70
2022/07/17 07:55:47;;;;;;;5.63;1.50;;;;;;;-145.18;100.00;46547.09;5052383;28;20036;-71
2022/07/17 07:58:13;;;;;;;5.30;1.53;;;;;;;-145.18;100.00;46547.09;5051476;28;20032;-71
2022/07/17 08:00:40;;;;;;;9.47;2.50;;;;;;;-145.18;100.00;46541.25;5052079;28;20468;-71
2022/07/17 08:03:06;;;;;;;6.60;1.60;;;;;;;-145.18;100.00;46535.38;5049169;28;20876;-71
2022/07/17 08:05:31;;;;;;;7.17;1.80;;;;;;;-145.18;100.00;46541.25;5051989;28;20048;-70
2022/07/17 08:07:57;;;;;;;7.37;1.60;;;;;;;-145.18;100.00;46554.91;5051816;28;20100;-71
2022/07/17 08:10:23;;;;;;;7.53;1.60;;;;;;;-145.18;100.00;46545.16;5051831;28;20116;-71
2022/07/17 08:12:49;;;;;;;8.23;1.80;;;;;;;-145.18;100.00;46547.09;5051747;28;20025;-71
2022/07/17 08:15:19;;;;;;;8.60;1.83;;;;;;;-145.18;100.00;46545.16;5051436;28;20036;-70
2022/07/17 08:17:46;;;;;;;5.23;1.53;;;;;;;-145.18;100.00;46543.19;5051796;28;20037;-71
2022/07/17 08:20:13;;;;;;;7.53;1.90;;;;;;;-145.18;100.00;46545.16;5051424;28;20098;-71
2022/07/17 08:22:38;;;;;;;4.13;1.40;;;;;;;-145.18;100.00;46535.38;5051707;28;20512;-71
2022/07/17 08:25:04;;;;;;;6.93;1.60;;;;;;;-145.18;100.00;46554.91;5051340;28;20049;-71
2022/07/17 08:27:38;;;;;;;3.20;1.23;;;;;;;-145.18;100.00;46549.06;5051788;28;20037;-71
2022/07/17 08:30:05;;;;;;;5.93;1.50;;;;;;;-145.18;100.00;46552.97;5051729;28;20025;-71
2022/07/17 08:32:30;;;;;;;7.13;1.40;;;;;;;-145.18;100.00;46570.53;5050437;28;20774;-71
2022/07/17 08:34:56;;;;;;;3.97;1.27;;;;;;;-145.18;100.00;46584.22;5050661;28;20115;-71
2022/07/17 08:37:21;;;;;;;6.17;1.20;;;;;;;-145.18;100.00;46584.22;5044389;28;20037;-71
2022/07/17 08:39:47;;;;;;;3.67;1.27;;;;;;;-145.18;100.00;46586.16;5042737;28;20059;-71
2022/07/17 08:42:16;;;;;;;5.57;1.30;;;;;;;-145.18;100.00;46586.16;5051470;28;20416;-71
2022/07/17 08:44:42;;;;;;;4.50;1.27;;;;;;;-145.18;100.00;46590.06;5051432;28;20036;-71
2022/07/17 08:47:10;;;;;;;4.90;1.30;;;;;;;-145.18;100.00;46636.94;5051140;28;20045;-70
2022/07/17 08:49:39;;;;;;;4.00;2.07;;;;;;;-145.18;100.00;46601.78;5050953;28;20111;-71
2022/07/17 08:52:04;;;;;;;5.37;2.33;;;;;;;-145.18;100.00;46584.22;5051229;28;20035;-71
2022/07/17 08:54:30;;;;;;;4.47;1.37;;;;;;;-145.18;100.00;46572.50;5050469;28;20041;-72
2022/07/17 08:56:57;;;;;;;6.17;1.60;;;;;;;-145.18;100.00;46568.59;5038921;28;20045;-71
2022/07/17 08:59:22;;;;;;;4.23;1.30;;;;;;;-145.18;100.00;46576.41;5049202;28;20020;-72
2022/07/17 09:01:47;;;;;;;4.20;1.43;;;;;;;-145.18;100.00;46554.91;5050958;28;20386;-71
2022/07/17 09:04:13;;;;;;;5.17;1.80;;;;;;;-145.18;100.00;46836.19;5049826;28;20425;-71
2022/07/17 09:06:38;;;;;;;3.97;1.73;;;;;;;-145.18;100.00;46998.34;5050983;28;20047;-71
2022/07/17 09:09:09;;;;;;;4.87;1.40;;;;;;;-145.18;100.00;47183.94;5050612;28;20033;-71
2022/07/17 09:12:04;;;;;;;4.73;1.33;;;;;;;-145.18;100.00;47181.97;5050973;28;20025;-71
2022/07/17 09:14:39;;;;;;;3.80;1.20;;;;;;;-145.18;100.00;47205.41;5048444;28;20132;-71
2022/07/17 09:17:06;;;;;;;5.78;1.92;;;;;;;-145.18;100.00;47217.13;5050644;28;20115;-72
2022/07/17 09:19:35;;;;;;;3.13;1.70;;;;;;;-145.18;100.00;47193.69;5050080;28;20037;-71
2022/07/17 09:22:14;;;;;;;6.13;1.60;;;;;;;-145.18;100.00;47203.47;5050587;28;20107;-71
2022/07/17 09:24:51;;;;;;;4.13;1.60;;;;;;;-145.18;100.00;47096.00;5050189;28;20109;-71
2022/07/17 09:27:32;;;;;;;3.87;1.10;;;;;;;-145.18;100.00;47125.31;5050585;28;20028;-71
2022/07/17 09:30:11;;;;;;;3.53;1.37;;;;;;;-145.18;100.00;47181.97;5049295;28;20025;-72
2022/07/17 09:32:39;;;;;;;5.57;1.63;;;;;;;-145.18;100.00;47139.00;5050546;28;20013;-71
2022/07/17 09:35:08;;;;;;;3.90;1.60;;;;;;;-145.18;100.00;47176.09;5049143;28;20041;-71
2022/07/17 09:37:34;;;;;;;11.87;2.63;;;;;;;-145.18;100.00;47000.28;5050318;28;20484;-71
2022/07/17 09:40:01;;;;;;;5.47;1.83;;;;;;;-145.18;100.00;47131.19;5049331;28;20062;-71
2022/07/17 09:42:29;;;;;;;10.57;2.00;;;;;;;-145.18;100.00;47160.47;5049811;28;20108;-72
2022/07/17 09:45:15;;;;;;;5.60;1.57;;;;;;;-145.18;100.00;47109.69;5049714;28;20120;-71
2022/07/17 09:47:40;;;;;;;5.30;1.73;;;;;;;-145.18;100.00;47121.41;5032279;28;20099;-71
2022/07/17 09:50:07;;;;;;;8.27;1.60;;;;;;;-145.18;100.00;47074.53;5041441;28;20052;-72
2022/07/17 09:52:35;;;;;;;5.73;1.70;;;;;;;-145.18;100.00;47094.06;5034902;28;20456;-71
2022/07/17 09:55:01;;;;;;;7.50;1.60;;;;;;;-145.18;100.00;47082.34;5029571;28;20378;-71
2022/07/17 09:57:30;;;;;;;5.10;1.37;;;;;;;-145.18;100.00;47045.22;5038121;28;20043;-71
2022/07/17 10:00:00;;;;;;;4.50;1.37;;;;;;;-145.18;100.00;47037.41;5048778;28;20075;-72
2022/07/17 10:02:25;;;;;;;7.37;1.40;;;;;;;-145.18;100.00;47039.34;5048298;28;20036;-72
2022/07/17 10:04:52;;;;;;;5.73;1.70;;;;;;;-145.18;100.00;47045.22;5048864;28;20033;-72
2022/07/17 10:07:18;;;;;;;3.30;1.50;;;;;;;-145.18;100.00;47035.44;5049492;28;20778;-72
2022/07/17 10:09:45;;;;;;;5.10;1.50;;;;;;;-145.18;100.00;47029.59;5049272;28;20089;-71
2022/07/17 10:12:10;;;;;;;4.80;1.50;;;;;;;-145.18;100.00;47039.34;5049392;28;20120;-72
2022/07/17 10:14:38;;;;;;;3.20;1.30;;;;;;;-145.18;100.00;47021.78;5048826;28;20481;-71
2022/07/17 10:17:13;;;;;;;5.43;1.53;;;;;;;-145.18;100.00;47017.88;5048510;28;20578;-69
2022/07/17 10:19:47;;;;;;;5.63;1.30;;;;;;;-145.18;100.00;47010.06;5049114;28;20542;-72
2022/07/17 10:22:13;;;;;;;5.10;1.53;;;;;;;-145.18;100.00;47008.09;5049394;28;20636;-72
2022/07/17 10:24:52;;;;;;;6.10;1.40;;;;;;;-145.18;100.00;47010.06;5047781;28;20120;-72
2022/07/17 10:27:19;;;;;;;4.20;1.40;;;;;;;-145.18;100.00;47012.00;5051576;28;20382;-72
2022/07/17 10:29:44;;;;;;;5.83;1.60;;;;;;;-145.18;100.00;47008.09;5052811;28;20462;-72
2022/07/17 10:32:18;;;;;;;4.87;2.17;;;;;;;-145.18;100.00;47015.91;5053008;28;20031;-72
2022/07/17 10:34:47;;;;;;;3.60;1.63;;;;;;;-145.18;100.00;47019.81;5049813;28;20047;-71
2022/07/17 10:37:19;;;;;;;4.30;1.50;;;;;;;-145.18;100.00;46998.34;5052979;28;20492;-72
2022/07/17 10:39:54;;;;;;;2.50;1.40;;;;;;;-145.18;100.00;47004.19;5052945;28;20028;-72
2022/07/17 10:42:39;;;;;;;6.03;1.30;;;;;;;-145.18;100.00;46986.63;5052438;28;20478;-72
2022/07/17 10:45:13;;;;;;;4.77;1.30;;;;;;;-145.18;100.00;46986.63;5051727;28;20029;-69
2022/07/17 10:47:58;;;;;;;5.18;1.48;;;;;;;-145.18;100.00;46980.75;5051646;28;20150;-72
2022/07/17 10:50:45;;;;;;;5.03;1.37;;;;;;;-145.18;100.00;46996.38;5052584;28;20382;-71
2022/07/17 10:53:23;;;;;;;3.57;1.60;;;;;;;-145.18;100.00;46992.47;5047718;28;20495;-71
2022/07/17 10:56:04;;;;;;;3.90;1.57;;;;;;;-145.18;100.00;46980.75;5050379;28;20025;-72
2022/07/17 10:58:37;;;;;;;3.93;1.60;;;;;;;-145.18;100.00;46965.13;5051825;28;20036;-72
2022/07/17 11:01:15;;;;;;;4.63;1.67;;;;;;;-145.18;100.00;46967.09;5052062;28;20533;-72
2022/07/17 11:03:59;;;;;;;4.87;1.63;;;;;;;-145.18;100.00;46967.09;5052308;28;20049;-71
2022/07/17 11:06:32;;;;;;;4.80;1.73;;;;;;;-145.18;100.00;46957.31;5042167;28;20029;-72
2022/07/17 11:09:08;;;;;;;4.47;1.50;;;;;;;-145.18;100.00;46957.31;5051726;28;20108;-69